Accueil
METAR-TAF:

METAR-TAF

Aéroports :

Nouakchott, Mauritanie

Aéroport international de Nouakchott-Oumtounsy

latitude: 18-18-36N, longitude: 015-58-11W, altitude: 3 m

Observation

Le bulletin a été fait il y a 42 minutes, à 18:00 UTC
Vent 21 kt de nord-ouest
Température 28°C
Humidité 55%
Pression 1006 hPa
Visibilité: 4500 m
Chasse-sable basse

METAR: GQNO 231800Z 32021KT 4500 DRSA NSC 28/18 Q1006 NOSIG

Heure: 18:42 (18:42 UTC)

Prévision

Le bulletin a été fait il y a 7 heures et 42 minutes, à 11:00 UTC
Prévision valable du 23 à 12 UTC au 24 à 18 UTC
Vent 12 kt de nord
Visibilité: 7000 m

TAF: GQNO 231100Z 2312/2418 35012KT 7000 NSC

Observations et prévisions météorologiques de plus de 4000 aéroports (messages METAR et TAF).

Les stations disponibles sont représentées par des disques jaunes et rouges sur la carte.

Passer la souris dessus pour voir le nom de la station.

Cliquer dessus pour voir les observations et prévisions météorologiques.

Pour changer de carte: cliquez sur les boutons verts avec une croix noire pour zoomer, sur le bouton vert avec un tiret pour effectuer un zoom arrière, ou sur les flèches vertes pour les cartes adjacentes.


METAR-TAF: